Time;durP1;ratioP1;P1;durP2;ratioP2;P2;SDS_P1;SDS_P2;PMS_P1;PMS_P2;Temp;Humidity;BMP_temperature;BMP_pressure;BME280_temperature;BME280_humidity;BME280_pressure;Samples;Min_cycle;Max_cycle;Signal;HPM_P1;HPM_P2
2022/05/04 00:01:18;;;;;;;2.65;1.40;;;14.70;56.60;;;;;;4941311;29;20035;-78
2022/05/04 00:03:44;;;;;;;1.45;1.30;;;14.70;56.60;;;;;;4941249;29;20039;-77
2022/05/04 00:06:10;;;;;;;2.63;1.30;;;14.70;56.60;;;;;;4941587;29;20034;-79
2022/05/04 00:08:39;;;;;;;2.92;1.60;;;14.60;56.60;;;;;;4941282;29;20028;-77
2022/05/04 00:11:06;;;;;;;1.88;1.50;;;14.60;56.60;;;;;;4957156;29;20106;-76
2022/05/04 00:13:32;;;;;;;3.15;1.50;;;14.60;56.60;;;;;;4957095;29;20118;-75
2022/05/04 00:16:02;;;;;;;2.65;1.55;;;14.60;56.60;;;;;;4941560;29;20042;-76
2022/05/04 00:18:28;;;;;;;2.67;1.42;;;14.60;56.70;;;;;;4940877;29;20492;-78
2022/05/04 00:20:54;;;;;;;2.17;1.30;;;14.60;56.60;;;;;;4940936;29;20154;-79
2022/05/04 00:23:22;;;;;;;2.40;1.40;;;14.60;56.60;;;;;;4925133;29;20461;-77
2022/05/04 00:25:48;;;;;;;2.58;1.50;;;14.60;56.70;;;;;;4940689;29;20495;-78
2022/05/04 00:28:14;;;;;;;2.58;1.48;;;14.60;56.70;;;;;;4956686;29;20121;-76
2022/05/04 00:30:40;;;;;;;2.45;1.60;;;14.60;56.70;;;;;;4941325;29;20067;-78
2022/05/04 00:33:05;;;;;;;2.20;1.50;;;14.50;56.60;;;;;;4940932;29;20483;-79
2022/05/04 00:35:31;;;;;;;2.80;1.77;;;14.50;56.70;;;;;;4957348;29;20023;-81
2022/05/04 00:37:57;;;;;;;2.33;1.65;;;14.50;56.70;;;;;;4942430;29;20046;-78
2022/05/04 00:40:23;;;;;;;1.95;1.20;;;14.50;56.70;;;;;;4956594;29;20023;-78
2022/05/04 00:42:48;;;;;;;2.95;1.60;;;14.50;56.80;;;;;;4956849;29;20039;-77
2022/05/04 00:45:14;;;;;;;2.47;1.63;;;14.40;56.70;;;;;;4940783;29;20130;-78
2022/05/04 00:47:40;;;;;;;2.40;1.30;;;14.40;56.70;;;;;;4909173;29;20071;-77
2022/05/04 00:50:08;;;;;;;3.33;1.48;;;14.40;56.70;;;;;;4941205;29;20036;-77
2022/05/04 00:52:36;;;;;;;4.00;1.83;;;14.40;56.80;;;;;;4956509;29;20038;-81
2022/05/04 00:55:05;;;;;;;2.72;1.38;;;14.40;56.80;;;;;;4940820;28;20039;-77
2022/05/04 01:00:18;;;;;;;1.83;1.35;;;14.40;56.80;;;;;;4957634;29;20038;-79
2022/05/04 01:02:44;;;;;;;2.72;1.55;;;14.30;56.80;;;;;;4940381;29;20032;-77
2022/05/04 01:05:10;;;;;;;2.50;1.30;;;14.30;56.80;;;;;;4956281;29;20402;-77
2022/05/04 01:07:38;;;;;;;2.03;1.40;;;14.30;56.80;;;;;;4957044;28;20027;-77
2022/05/04 01:10:04;;;;;;;1.55;1.17;;;14.30;56.90;;;;;;4956091;29;20464;-78
2022/05/04 01:12:31;;;;;;;2.10;1.38;;;14.30;56.80;;;;;;4940664;29;20043;-79
2022/05/04 01:14:58;;;;;;;1.35;1.20;;;14.30;56.90;;;;;;4939888;29;20460;-78
2022/05/04 01:17:24;;;;;;;1.60;1.20;;;14.20;56.80;;;;;;4955778;29;20130;-77
2022/05/04 01:19:50;;;;;;;2.53;1.40;;;14.30;56.90;;;;;;4955971;29;20039;-77
2022/05/04 01:22:16;;;;;;;2.92;1.50;;;14.20;56.80;;;;;;4940344;29;20404;-78
2022/05/04 01:24:42;;;;;;;3.00;1.40;;;14.20;56.80;;;;;;4955952;29;20035;-77
2022/05/04 01:27:11;;;;;;;2.75;1.65;;;14.20;56.80;;;;;;4940051;29;20027;-78
2022/05/04 01:29:37;;;;;;;2.45;1.67;;;14.20;56.90;;;;;;4939577;29;20038;-78
2022/05/04 01:32:03;;;;;;;2.05;1.58;;;14.20;56.90;;;;;;4939837;29;20039;-77
2022/05/04 01:34:29;;;;;;;1.77;1.38;;;14.20;56.90;;;;;;4939554;29;20128;-80
2022/05/04 01:36:55;;;;;;;2.65;1.40;;;14.10;56.80;;;;;;4908352;29;20045;-76
2022/05/04 01:39:20;;;;;;;2.33;1.33;;;14.10;56.80;;;;;;4940031;29;20039;-77
2022/05/04 01:42:05;;;;;;;1.65;1.30;;;14.10;56.90;;;;;;4939497;29;20062;-77
2022/05/04 01:44:35;;;;;;;1.88;1.27;;;14.10;56.90;;;;;;4940146;29;20071;-78
2022/05/04 01:47:01;;;;;;;3.00;1.40;;;14.10;56.90;;;;;;4923596;29;20056;-78
2022/05/04 01:49:27;;;;;;;3.85;1.60;;;14.10;56.90;;;;;;4940033;29;20035;-79
2022/05/04 01:51:53;;;;;;;2.90;1.50;;;14.00;56.90;;;;;;4939466;29;20032;-77
2022/05/04 01:54:19;;;;;;;2.50;1.60;;;14.00;56.90;;;;;;4939492;29;20502;-77
2022/05/04 01:56:45;;;;;;;1.65;1.33;;;14.10;57.00;;;;;;4938818;29;20031;-78
2022/05/04 01:59:11;;;;;;;2.63;1.60;;;14.00;56.90;;;;;;4956376;28;20373;-76
2022/05/04 02:01:40;;;;;;;1.85;1.50;;;14.00;56.90;;;;;;4954926;29;20067;-79
2022/05/04 02:04:06;;;;;;;2.55;1.42;;;14.00;56.90;;;;;;4938830;29;20131;-78
2022/05/04 02:06:33;;;;;;;1.45;1.30;;;14.00;56.90;;;;;;4940249;28;20070;-82
2022/05/04 02:08:58;;;;;;;1.50;1.30;;;13.90;56.90;;;;;;4956392;29;20035;-77
2022/05/04 02:11:25;;;;;;;3.22;1.60;;;13.90;56.90;;;;;;4938804;29;20039;-76
2022/05/04 02:13:51;;;;;;;2.17;1.50;;;13.90;56.90;;;;;;4939827;29;20102;-76
2022/05/04 02:16:17;;;;;;;2.08;1.30;;;13.90;56.90;;;;;;4955168;29;20027;-76
2022/05/04 02:18:43;;;;;;;3.10;1.60;;;13.90;56.90;;;;;;4954662;29;20511;-78
2022/05/04 02:21:09;;;;;;;1.92;1.25;;;13.90;56.90;;;;;;4938861;29;20494;-78
2022/05/04 02:23:36;;;;;;;2.03;1.45;;;13.90;57.00;;;;;;4954708;29;20568;-76
2022/05/04 02:26:02;;;;;;;3.45;1.40;;;13.90;57.00;;;;;;4954822;29;20095;-77
2022/05/04 02:28:27;;;;;;;2.28;1.30;;;13.90;57.00;;;;;;4954438;29;20035;-77
2022/05/04 02:30:53;;;;;;;2.78;1.70;;;13.80;57.00;;;;;;4955670;29;20089;-80
2022/05/04 02:33:19;;;;;;;1.90;1.30;;;13.80;56.90;;;;;;4939244;29;20035;-77
2022/05/04 02:38:29;;;;;;;2.60;1.48;;;13.80;57.10;;;;;;4956270;29;20031;-78
2022/05/04 02:40:54;;;;;;;2.20;1.60;;;13.80;57.10;;;;;;4938965;29;20412;-78
2022/05/04 02:43:20;;;;;;;2.58;1.40;;;13.80;57.00;;;;;;4922539;29;20035;-79
2022/05/04 02:45:46;;;;;;;2.65;1.60;;;13.80;57.10;;;;;;4923019;29;20027;-79
2022/05/04 02:48:12;;;;;;;1.60;1.27;;;13.70;57.10;;;;;;4922775;29;20035;-77
2022/05/04 02:50:38;;;;;;;1.70;1.50;;;13.70;57.00;;;;;;4938375;29;20066;-78
2022/05/04 02:53:04;;;;;;;1.85;1.23;;;13.70;57.10;;;;;;4938437;29;20481;-79
2022/05/04 02:55:30;;;;;;;3.00;1.35;;;13.70;57.10;;;;;;4954333;29;20070;-76
2022/05/04 02:57:56;;;;;;;1.33;1.23;;;13.70;57.10;;;;;;4938310;29;20035;-77
2022/05/04 03:00:22;;;;;;;1.70;1.27;;;13.70;57.10;;;;;;4938502;29;20379;-76
2022/05/04 03:02:48;;;;;;;2.80;1.40;;;13.60;57.10;;;;;;4938460;29;20031;-76
2022/05/04 03:05:15;;;;;;;2.30;1.50;;;13.60;57.10;;;;;;4954493;29;20042;-79
2022/05/04 03:07:41;;;;;;;1.83;1.35;;;13.70;57.20;;;;;;4954246;29;20079;-76
2022/05/04 03:10:08;;;;;;;2.40;1.40;;;13.70;57.20;;;;;;4955112;28;20082;-77
2022/05/04 03:12:34;;;;;;;2.00;1.20;;;13.60;57.10;;;;;;4954311;29;20039;-77
2022/05/04 03:15:00;;;;;;;2.03;1.40;;;13.60;57.10;;;;;;4938912;29;20035;-80
2022/05/04 03:17:26;;;;;;;2.13;1.35;;;13.60;57.40;;;;;;4953637;29;20097;-77
2022/05/04 03:19:52;;;;;;;2.58;1.40;;;13.60;57.20;;;;;;4956355;28;20043;-77
2022/05/04 03:22:18;;;;;;;2.45;1.58;;;13.60;57.20;;;;;;4958158;29;20122;-78
2022/05/04 03:24:44;;;;;;;2.58;1.40;;;13.60;57.20;;;;;;4925726;29;20089;-77
2022/05/04 03:27:10;;;;;;;1.30;1.20;;;13.60;57.20;;;;;;4942805;29;20108;-78
2022/05/04 03:29:36;;;;;;;2.70;1.60;;;13.50;57.20;;;;;;4959973;28;20472;-78
2022/05/04 03:32:05;;;;;;;1.27;1.17;;;13.50;57.20;;;;;;4942630;29;20139;-82
2022/05/04 03:34:31;;;;;;;1.60;1.30;;;13.60;57.20;;;;;;4942394;29;20031;-77
2022/05/04 03:37:00;;;;;;;1.50;1.40;;;13.50;57.20;;;;;;4957528;29;20098;-77
2022/05/04 03:39:26;;;;;;;1.60;1.23;;;13.50;57.20;;;;;;4911118;29;20396;-77
2022/05/04 03:41:52;;;;;;;1.52;1.20;;;13.50;57.20;;;;;;4958031;29;20066;-77
2022/05/04 03:44:18;;;;;;;2.28;1.58;;;13.50;57.20;;;;;;4926689;29;20465;-78
2022/05/04 03:46:51;;;;;;;2.55;1.60;;;13.50;57.20;;;;;;4959069;28;20542;-76
2022/05/04 03:49:19;;;;;;;2.03;1.58;;;13.40;57.20;;;;;;4957850;29;20039;-76
2022/05/04 03:51:45;;;;;;;1.98;1.33;;;13.40;57.20;;;;;;4941259;29;20436;-77
2022/05/04 03:54:11;;;;;;;2.67;1.40;;;13.40;57.20;;;;;;4959433;28;20102;-77
2022/05/04 03:56:38;;;;;;;2.55;1.40;;;13.40;57.20;;;;;;4957015;29;20104;-79
2022/05/04 03:59:05;;;;;;;1.92;1.30;;;13.40;57.20;;;;;;4941425;29;20468;-76
2022/05/04 04:01:31;;;;;;;1.98;1.30;;;13.40;57.30;;;;;;4957026;29;20054;-77
2022/05/04 04:03:57;;;;;;;2.08;1.42;;;13.40;57.30;;;;;;4956756;29;20062;-78
2022/05/04 04:06:23;;;;;;;1.80;1.30;;;13.30;57.20;;;;;;4956671;29;20500;-75
2022/05/04 04:08:50;;;;;;;2.75;1.52;;;13.30;57.20;;;;;;4956742;29;20086;-76
2022/05/04 04:11:15;;;;;;;2.30;1.30;;;13.30;57.30;;;;;;4940863;29;20031;-77
2022/05/04 04:13:41;;;;;;;2.47;1.48;;;13.30;57.30;;;;;;4957892;28;20038;-76
2022/05/04 04:16:07;;;;;;;2.05;1.40;;;13.30;57.30;;;;;;4956953;29;20033;-76
2022/05/04 04:18:33;;;;;;;1.23;1.10;;;13.30;57.30;;;;;;4956525;29;20366;-78
2022/05/04 04:23:43;;;;;;;2.72;1.80;;;13.30;57.30;;;;;;4957507;29;20090;-77
2022/05/04 04:26:10;;;;;;;2.20;1.20;;;13.30;57.30;;;;;;4956359;29;20027;-76
2022/05/04 04:28:38;;;;;;;1.92;1.25;;;13.30;57.30;;;;;;4956582;29;20038;-77
2022/05/04 04:31:05;;;;;;;1.65;1.30;;;13.20;57.30;;;;;;4956438;28;20027;-77
2022/05/04 04:33:31;;;;;;;1.85;1.30;;;13.20;57.30;;;;;;4940471;29;20031;-77
2022/05/04 04:35:57;;;;;;;1.65;1.50;;;13.20;57.30;;;;;;4940668;29;20027;-76
2022/05/04 04:38:23;;;;;;;1.77;1.30;;;13.20;57.40;;;;;;4940674;29;20460;-77
2022/05/04 04:40:50;;;;;;;1.63;1.30;;;13.20;57.30;;;;;;4940109;29;20035;-77
2022/05/04 04:43:16;;;;;;;2.83;1.48;;;13.20;57.40;;;;;;4956649;29;20128;-78
2022/05/04 04:45:44;;;;;;;1.73;1.40;;;13.10;57.30;;;;;;4955958;29;20020;-75
2022/05/04 04:48:10;;;;;;;2.35;1.50;;;13.10;57.40;;;;;;4956895;29;20039;-75
2022/05/04 04:50:36;;;;;;;2.95;1.60;;;13.10;57.30;;;;;;4956112;29;20497;-76
2022/05/04 04:53:02;;;;;;;2.58;1.65;;;13.10;57.30;;;;;;4940121;29;20035;-75
2022/05/04 04:55:28;;;;;;;1.75;1.27;;;13.10;57.30;;;;;;4957278;29;20026;-76
2022/05/04 04:57:53;;;;;;;1.75;1.40;;;13.10;57.40;;;;;;4940279;29;20035;-77
2022/05/04 05:00:20;;;;;;;2.47;1.40;;;13.10;57.30;;;;;;4940535;29;20034;-76
2022/05/04 05:02:46;;;;;;;3.58;1.50;;;13.10;57.40;;;;;;4940341;29;20464;-76
2022/05/04 05:05:12;;;;;;;2.03;1.30;;;13.00;57.30;;;;;;4956479;29;20033;-78
2022/05/04 05:07:38;;;;;;;2.63;1.70;;;13.00;57.30;;;;;;4942669;29;20055;-79
2022/05/04 05:10:05;;;;;;;2.15;1.42;;;13.00;57.30;;;;;;4957846;29;20356;-78
2022/05/04 05:12:32;;;;;;;2.63;1.48;;;13.00;57.40;;;;;;4941506;29;20043;-77
2022/05/04 05:17:42;;;;;;;2.00;1.50;;;13.00;57.40;;;;;;4956519;29;20066;-77
2022/05/04 05:20:09;;;;;;;3.03;1.50;;;13.00;57.40;;;;;;4939748;29;20039;-80
2022/05/04 05:22:35;;;;;;;2.22;1.30;;;12.90;57.40;;;;;;4956026;29;20130;-79
2022/05/04 05:25:00;;;;;;;2.10;1.40;;;12.90;57.40;;;;;;4939985;29;20122;-79
2022/05/04 05:27:29;;;;;;;2.72;1.50;;;12.90;57.40;;;;;;4955616;29;20126;-77
2022/05/04 05:29:55;;;;;;;2.70;1.55;;;12.90;57.40;;;;;;4955925;29;20035;-77
2022/05/04 05:32:21;;;;;;;2.90;1.70;;;12.90;57.40;;;;;;4955844;29;20369;-78
2022/05/04 05:34:47;;;;;;;2.83;1.65;;;12.90;57.40;;;;;;4955486;29;20370;-77
2022/05/04 05:37:13;;;;;;;2.38;1.45;;;12.90;57.40;;;;;;4940039;29;20027;-76
2022/05/04 05:39:42;;;;;;;1.85;1.30;;;12.90;57.40;;;;;;4956526;28;20077;-78
2022/05/04 05:42:08;;;;;;;2.92;1.52;;;12.90;57.40;;;;;;4954753;28;20111;-77
2022/05/04 05:44:35;;;;;;;1.77;1.42;;;12.80;57.40;;;;;;4956853;28;20031;-78
2022/05/04 05:47:01;;;;;;;2.42;1.60;;;12.90;57.50;;;;;;4955698;29;20121;-79
2022/05/04 05:49:28;;;;;;;2.20;1.50;;;12.80;57.40;;;;;;4940091;29;20110;-78
2022/05/04 05:51:54;;;;;;;1.75;1.50;;;12.80;57.40;;;;;;4939132;29;20043;-77
2022/05/04 05:54:19;;;;;;;1.80;1.27;;;12.80;57.40;;;;;;4939370;29;20019;-76
2022/05/04 05:56:45;;;;;;;3.33;1.60;;;12.80;57.40;;;;;;4954917;29;20392;-78
2022/05/04 05:59:12;;;;;;;2.53;1.27;;;12.80;57.40;;;;;;4956027;28;20031;-75
2022/05/04 06:01:39;;;;;;;2.03;1.50;;;12.80;57.40;;;;;;4939331;29;20118;-76
2022/05/04 06:04:08;;;;;;;2.63;1.48;;;12.80;57.50;;;;;;4938899;29;20054;-75
2022/05/04 06:06:34;;;;;;;2.03;1.50;;;12.80;57.50;;;;;;4955778;29;20102;-76
2022/05/04 06:09:00;;;;;;;3.17;1.40;;;12.80;57.50;;;;;;4938975;29;20035;-77
2022/05/04 06:11:26;;;;;;;2.03;1.40;;;12.80;57.50;;;;;;4955032;29;20057;-77
2022/05/04 06:13:52;;;;;;;2.05;1.40;;;12.80;57.50;;;;;;4939090;29;20476;-77
2022/05/04 06:16:18;;;;;;;2.58;1.52;;;12.80;57.50;;;;;;4955092;29;20020;-78
2022/05/04 06:18:45;;;;;;;2.00;1.50;;;12.80;57.50;;;;;;4938832;29;20508;-77
2022/05/04 06:21:10;;;;;;;4.38;1.80;;;12.70;57.50;;;;;;4938998;29;20039;-79
2022/05/04 06:23:36;;;;;;;3.15;1.88;;;12.70;57.50;;;;;;4923752;29;20059;-77
2022/05/04 06:26:02;;;;;;;1.75;1.27;;;12.70;57.50;;;;;;4939371;29;20346;-79
2022/05/04 06:28:28;;;;;;;2.15;1.42;;;12.80;57.60;;;;;;4938418;29;20036;-78
2022/05/04 06:36:22;;;;;;;2.08;1.50;;;12.80;57.50;;;;;;4954729;29;20028;-78
2022/05/04 06:38:48;;;;;;;2.70;1.83;;;12.70;57.50;;;;;;4955287;29;20031;-78
2022/05/04 06:41:14;;;;;;;2.03;1.48;;;12.80;57.60;;;;;;4938439;29;20058;-80
2022/05/04 06:43:40;;;;;;;2.80;1.50;;;12.70;57.60;;;;;;4938467;29;20027;-77
2022/05/04 06:46:07;;;;;;;1.50;1.40;;;12.80;57.60;;;;;;4954339;29;20114;-77
2022/05/04 06:48:32;;;;;;;2.75;1.73;;;12.80;57.60;;;;;;4954774;29;20027;-78
2022/05/04 06:50:58;;;;;;;1.73;1.50;;;12.80;57.60;;;;;;4939080;29;20468;-78
2022/05/04 06:53:24;;;;;;;3.92;1.73;;;12.80;57.60;;;;;;4954809;29;20039;-78
2022/05/04 06:55:50;;;;;;;3.10;1.45;;;12.80;57.60;;;;;;4907116;29;20051;-77
2022/05/04 06:58:16;;;;;;;1.58;1.40;;;12.80;57.60;;;;;;4954588;29;20539;-78
2022/05/04 07:00:42;;;;;;;1.67;1.40;;;12.80;57.60;;;;;;4938004;29;20047;-77
2022/05/04 07:03:07;;;;;;;3.45;1.30;;;12.80;57.60;;;;;;4954031;29;20035;-79
2022/05/04 07:05:33;;;;;;;2.83;1.42;;;12.80;57.60;;;;;;4922154;29;20356;-78
2022/05/04 07:07:59;;;;;;;2.13;1.55;;;12.80;57.60;;;;;;4922692;29;20068;-79
2022/05/04 07:10:24;;;;;;;2.63;1.35;;;12.80;57.60;;;;;;4937938;29;20047;-77
2022/05/04 07:12:50;;;;;;;3.13;1.60;;;12.80;57.60;;;;;;4938703;29;20032;-77
2022/05/04 07:15:17;;;;;;;2.15;1.40;;;12.80;57.60;;;;;;4922024;29;20090;-78
2022/05/04 07:17:43;;;;;;;1.75;1.45;;;12.80;57.60;;;;;;4954014;29;20511;-78
2022/05/04 07:20:10;;;;;;;2.08;1.60;;;12.80;57.60;;;;;;4953755;29;20055;-78
2022/05/04 07:22:36;;;;;;;2.40;1.73;;;12.80;57.60;;;;;;4938274;29;20036;-77
2022/05/04 07:25:03;;;;;;;2.72;1.60;;;12.90;57.60;;;;;;4955592;28;20110;-77
2022/05/04 07:27:29;;;;;;;2.88;1.70;;;12.90;57.60;;;;;;4938784;29;20039;-78
2022/05/04 07:29:54;;;;;;;3.38;1.65;;;12.90;57.60;;;;;;4938006;29;20038;-77
2022/05/04 07:32:20;;;;;;;1.65;1.33;;;12.90;57.70;;;;;;4938063;29;20038;-77
2022/05/04 07:34:46;;;;;;;1.45;1.35;;;12.90;57.60;;;;;;4937898;29;20050;-78
2022/05/04 07:37:12;;;;;;;2.92;1.65;;;12.90;57.50;;;;;;4938138;29;20036;-78
2022/05/04 07:42:26;;;;;;;1.95;1.48;;;12.90;57.60;;;;;;4955192;29;20036;-77
2022/05/04 07:45:07;;;;;;;1.50;1.15;;;12.90;57.60;;;;;;4938741;29;20046;-77
2022/05/04 07:47:35;;;;;;;2.17;1.65;;;12.90;57.60;;;;;;4937679;29;20079;-78
2022/05/04 07:50:03;;;;;;;2.95;1.60;;;13.00;57.60;;;;;;4953451;29;20031;-80
2022/05/04 07:52:28;;;;;;;2.53;1.60;;;13.00;57.60;;;;;;4937658;29;20046;-77
2022/05/04 07:54:55;;;;;;;2.50;1.60;;;13.00;57.60;;;;;;4906193;29;20031;-79
2022/05/04 07:57:21;;;;;;;2.47;1.50;;;13.00;57.50;;;;;;4937637;29;20031;-77
2022/05/04 08:04:16;;;;;;;4.13;1.80;;;13.10;57.60;;;;;;4937674;29;20027;-78
2022/05/04 08:05:21;;;;;;;2.40;1.45;;;13.10;57.50;;;;;;4955074;28;20039;-78
2022/05/04 08:07:47;;;;;;;1.90;1.40;;;13.10;57.40;;;;;;4957498;29;20082;-77
2022/05/04 08:10:13;;;;;;;2.42;1.40;;;13.20;57.50;;;;;;4957619;29;20035;-77
2022/05/04 08:12:39;;;;;;;2.17;1.52;;;13.20;57.40;;;;;;4956899;29;20039;-76
2022/05/04 08:15:05;;;;;;;2.10;1.60;;;13.30;58.10;;;;;;4959003;28;20051;-77
2022/05/04 08:17:31;;;;;;;1.92;1.60;;;13.30;57.40;;;;;;4957765;28;20054;-77
2022/05/04 08:19:59;;;;;;;2.88;1.70;;;13.40;57.40;;;;;;4956583;29;20500;-76
2022/05/04 08:22:26;;;;;;;2.38;1.42;;;13.40;57.30;;;;;;4958692;29;20110;-78
2022/05/04 08:24:51;;;;;;;2.78;1.50;;;13.50;57.30;;;;;;4925784;29;20090;-78
2022/05/04 08:27:18;;;;;;;2.30;1.60;;;13.50;57.90;;;;;;4940715;29;20416;-78
2022/05/04 08:30:15;;;;;;;2.25;1.50;;;13.60;57.20;;;;;;4940035;29;20134;-81
2022/05/04 08:34:07;;;;;;;2.80;1.70;;;13.60;57.20;;;;;;4951819;29;20050;-79
2022/05/04 08:36:51;;;;;;;2.13;1.50;;;13.70;57.00;;;;;;4957988;29;20058;-81
2022/05/04 08:39:17;;;;;;;2.55;1.50;;;13.80;57.00;;;;;;4956384;29;20465;-77
2022/05/04 08:41:43;;;;;;;1.70;1.40;;;13.90;57.10;;;;;;4940284;29;20042;-78
2022/05/04 08:44:11;;;;;;;2.70;1.52;;;14.00;57.10;;;;;;4940595;29;20023;-78
2022/05/04 08:46:39;;;;;;;2.35;1.73;;;14.10;57.10;;;;;;4940569;29;20024;-78
2022/05/04 08:49:06;;;;;;;3.25;1.90;;;14.10;57.10;;;;;;4939998;29;20035;-78
2022/05/04 08:51:33;;;;;;;1.92;1.50;;;14.20;57.10;;;;;;4956236;29;20031;-79
2022/05/04 08:53:59;;;;;;;2.65;1.67;;;14.30;57.00;;;;;;4955970;29;20035;-78
2022/05/04 08:56:28;;;;;;;2.70;1.50;;;14.30;56.90;;;;;;4940459;29;20031;-77
2022/05/04 08:58:54;;;;;;;2.70;1.70;;;14.40;56.90;;;;;;4940540;29;20044;-77
2022/05/04 09:01:20;;;;;;;2.40;1.65;;;14.50;56.90;;;;;;4939943;29;20024;-78
2022/05/04 09:03:45;;;;;;;1.42;1.33;;;14.60;56.90;;;;;;4939674;29;20039;-78
2022/05/04 09:06:24;;;;;;;3.10;1.63;;;14.70;56.80;;;;;;4955712;29;20375;-80
2022/05/04 09:09:08;;;;;;;2.95;1.60;;;14.80;56.90;;;;;;4939933;29;20460;-78
2022/05/04 09:11:55;;;;;;;4.45;1.67;;;14.90;56.80;;;;;;4924763;29;20146;-79
2022/05/04 09:14:27;;;;;;;2.30;1.50;;;15.00;56.70;;;;;;4939566;29;20126;-79
2022/05/04 09:16:53;;;;;;;1.50;1.30;;;15.10;56.70;;;;;;4938441;29;20031;-77
2022/05/04 09:19:20;;;;;;;2.50;1.50;;;15.10;56.70;;;;;;4907688;29;20526;-79
2022/05/04 09:21:47;;;;;;;1.85;1.42;;;15.20;56.70;;;;;;4940052;29;20078;-78
2022/05/04 09:24:26;;;;;;;2.20;1.40;;;15.30;56.60;;;;;;4955288;29;20031;-78
2022/05/04 09:26:55;;;;;;;1.63;1.30;;;15.40;56.60;;;;;;4939788;29;20047;-80
2022/05/04 09:29:42;;;;;;;1.80;1.40;;;15.50;56.60;;;;;;4956717;28;20027;-80
2022/05/04 09:32:14;;;;;;;2.25;1.55;;;15.60;56.60;;;;;;4952906;29;20054;-80
2022/05/04 09:34:46;;;;;;;1.90;1.40;;;15.70;56.60;;;;;;4956044;28;20031;-79
2022/05/04 09:45:38;;;;;;;2.65;1.60;;;16.00;56.50;;;;;;4955584;29;20035;-78
2022/05/04 09:48:05;;;;;;;1.83;1.42;;;16.20;56.50;;;;;;4954974;29;20490;-79
2022/05/04 09:50:39;;;;;;;2.40;1.45;;;16.20;56.50;;;;;;4939411;29;20047;-80
2022/05/04 09:53:07;;;;;;;1.90;1.45;;;16.30;56.50;;;;;;4939388;29;20039;-78
2022/05/04 09:55:35;;;;;;;2.35;1.50;;;16.40;56.50;;;;;;4939141;29;20058;-77
2022/05/04 09:58:02;;;;;;;2.88;1.50;;;16.50;56.50;;;;;;4955038;29;20118;-77
2022/05/04 10:00:30;;;;;;;2.47;1.50;;;16.60;56.50;;;;;;4907947;29;20118;-78
2022/05/04 10:02:57;;;;;;;1.75;1.40;;;16.70;56.50;;;;;;4938782;29;20043;-79
2022/05/04 10:05:24;;;;;;;2.50;1.45;;;16.80;56.90;;;;;;4923423;29;20042;-78
2022/05/04 10:07:52;;;;;;;1.33;1.23;;;16.90;56.60;;;;;;4938682;29;20034;-78
2022/05/04 10:10:20;;;;;;;1.48;1.20;;;17.00;56.60;;;;;;4938768;29;20445;-78
2022/05/04 10:12:48;;;;;;;1.77;1.20;;;17.10;56.50;;;;;;4956682;28;20484;-77
2022/05/04 10:15:16;;;;;;;2.17;1.27;;;17.20;56.50;;;;;;4956673;28;20110;-77
2022/05/04 10:17:55;;;;;;;2.05;1.35;;;17.30;56.40;;;;;;4939172;29;20473;-78
2022/05/04 10:20:27;;;;;;;1.80;1.48;;;17.40;56.50;;;;;;4954082;29;20503;-77
2022/05/04 10:22:59;;;;;;;2.50;1.30;;;17.50;56.40;;;;;;4939183;29;20024;-78
2022/05/04 10:25:26;;;;;;;1.65;1.40;;;17.60;56.50;;;;;;4938591;29;20042;-77
2022/05/04 10:28:07;;;;;;;1.85;1.50;;;17.70;56.50;;;;;;4953948;28;20058;-79
2022/05/04 10:30:36;;;;;;;1.90;1.45;;;17.80;56.80;;;;;;4954305;29;20054;-81
2022/05/04 10:33:05;;;;;;;2.67;1.60;;;17.90;56.70;;;;;;4954484;29;20066;-80
2022/05/04 10:35:34;;;;;;;1.55;1.40;;;18.00;56.60;;;;;;4954631;29;20109;-79
2022/05/04 10:38:01;;;;;;;1.95;1.38;;;18.10;56.60;;;;;;4954225;29;20030;-77
2022/05/04 10:40:32;;;;;;;2.17;1.58;;;18.20;56.60;;;;;;4954171;29;20118;-79
2022/05/04 10:43:05;;;;;;;1.40;1.30;;;18.30;56.60;;;;;;4938732;29;20040;-81
2022/05/04 10:45:39;;;;;;;2.28;1.48;;;18.40;56.60;;;;;;4954403;29;20035;-79
2022/05/04 10:48:20;;;;;;;2.67;1.65;;;18.50;56.60;;;;;;4938039;29;20039;-78
2022/05/04 10:51:12;;;;;;;3.40;1.67;;;18.60;56.60;;;;;;4938039;29;20373;-79
2022/05/04 10:53:41;;;;;;;3.63;1.60;;;18.70;56.60;;;;;;4943871;29;20055;-78
2022/05/04 10:56:12;;;;;;;2.55;1.42;;;18.80;56.50;;;;;;4954397;29;20027;-78
2022/05/04 10:58:50;;;;;;;2.30;1.70;;;18.80;56.40;;;;;;4938699;29;20039;-78
2022/05/04 11:01:30;;;;;;;2.22;1.60;;;19.00;56.60;;;;;;4955773;28;20053;-77
2022/05/04 11:04:11;;;;;;;1.73;1.40;;;19.10;56.60;;;;;;4938001;29;20027;-78
2022/05/04 11:06:41;;;;;;;2.50;1.63;;;19.10;56.50;;;;;;4953649;29;20065;-77
2022/05/04 11:09:07;;;;;;;2.42;1.73;;;19.20;56.40;;;;;;4953550;29;20035;-78
2022/05/04 11:11:34;;;;;;;2.70;1.83;;;19.30;56.50;;;;;;4938284;29;20027;-80
2022/05/04 11:14:00;;;;;;;2.55;1.70;;;19.40;56.40;;;;;;4938111;29;20046;-77
2022/05/04 11:16:28;;;;;;;2.70;1.80;;;19.50;56.50;;;;;;4953162;29;20123;-78
2022/05/04 11:18:55;;;;;;;2.63;1.73;;;19.60;56.60;;;;;;4937822;29;20051;-78
2022/05/04 11:21:21;;;;;;;3.17;2.15;;;19.60;56.50;;;;;;4938707;29;20067;-78
2022/05/04 11:23:52;;;;;;;3.53;1.90;;;19.70;56.60;;;;;;4953911;29;20119;-77
2022/05/04 11:26:23;;;;;;;3.38;2.03;;;19.80;56.60;;;;;;4938740;29;20357;-78
2022/05/04 11:28:51;;;;;;;2.70;1.83;;;19.90;56.70;;;;;;4953679;29;20468;-77
2022/05/04 11:31:18;;;;;;;2.75;1.90;;;19.90;56.60;;;;;;4937878;29;20028;-78
2022/05/04 11:33:46;;;;;;;2.20;1.65;;;20.00;56.70;;;;;;4922958;29;20047;-83
2022/05/04 11:36:13;;;;;;;2.97;1.90;;;20.00;56.70;;;;;;4954049;29;20063;-84
2022/05/04 11:38:39;;;;;;;3.67;2.30;;;20.10;56.80;;;;;;4954470;29;20083;-88
2022/05/04 11:41:05;;;;;;;3.47;1.95;;;20.20;56.80;;;;;;4956817;28;20468;-79
2022/05/04 11:43:33;;;;;;;3.45;2.35;;;20.20;56.90;;;;;;4959408;28;20031;-79
2022/05/04 11:46:07;;;;;;;2.70;2.00;;;20.20;56.90;;;;;;4957853;29;20027;-79
2022/05/04 11:48:44;;;;;;;2.72;1.75;;;20.30;57.00;;;;;;4941389;29;20036;-78
2022/05/04 11:51:16;;;;;;;2.42;1.88;;;20.30;57.10;;;;;;4958506;28;20121;-79
2022/05/04 11:53:41;;;;;;;3.47;2.20;;;20.40;57.10;;;;;;4926226;29;20479;-79
2022/05/04 11:56:08;;;;;;;2.55;1.92;;;20.50;57.20;;;;;;4957124;29;20035;-78
2022/05/04 11:58:37;;;;;;;2.97;1.95;;;20.50;57.20;;;;;;4956754;29;20510;-78
2022/05/04 12:01:04;;;;;;;3.45;2.17;;;20.50;57.20;;;;;;4958168;28;20038;-78
2022/05/04 12:03:33;;;;;;;2.25;1.85;;;20.60;57.20;;;;;;4941380;29;20027;-83
2022/05/04 12:06:01;;;;;;;2.55;1.83;;;20.60;57.10;;;;;;4957605;29;20023;-85
2022/05/04 12:08:28;;;;;;;3.72;2.20;;;20.60;57.00;;;;;;4941389;29;20476;-81
2022/05/04 12:10:54;;;;;;;2.50;2.00;;;20.70;57.00;;;;;;4957416;29;20102;-83
2022/05/04 12:13:25;;;;;;;2.78;1.90;;;20.70;57.00;;;;;;4956992;29;20064;-81
2022/05/04 12:15:54;;;;;;;3.25;1.92;;;20.70;56.90;;;;;;4941404;29;20035;-83
2022/05/04 12:18:21;;;;;;;3.20;2.15;;;20.70;56.80;;;;;;4941627;29;20055;-83
2022/05/04 12:20:48;;;;;;;3.63;2.08;;;20.80;56.90;;;;;;4956968;29;20097;-83
2022/05/04 12:23:15;;;;;;;3.60;2.35;;;20.80;56.90;;;;;;4940986;29;20031;-86
2022/05/04 12:25:42;;;;;;;3.42;2.30;;;20.80;56.90;;;;;;4956721;29;20122;-80
2022/05/04 12:28:09;;;;;;;3.40;1.98;;;20.80;57.10;;;;;;4940691;29;20035;-80
2022/05/04 12:33:31;;;;;;;3.70;2.10;;;20.90;57.30;;;;;;4957546;29;20039;-79
2022/05/04 12:36:07;;;;;;;3.88;2.20;;;20.90;57.10;;;;;;4957495;28;20170;-80
2022/05/04 12:38:35;;;;;;;3.08;2.25;;;21.00;57.20;;;;;;4940623;29;20093;-80
2022/05/04 12:41:03;;;;;;;3.95;2.40;;;21.00;57.20;;;;;;4940489;29;20027;-79
2022/05/04 12:43:36;;;;;;;3.95;2.45;;;21.00;57.20;;;;;;4909282;29;20035;-79
2022/05/04 12:46:09;;;;;;;3.42;2.55;;;21.00;57.00;;;;;;4956887;29;20035;-80
2022/05/04 12:48:38;;;;;;;3.47;2.30;;;21.10;56.80;;;;;;4957665;29;20061;-78
2022/05/04 12:51:05;;;;;;;2.85;2.20;;;21.10;56.60;;;;;;4940157;29;20473;-79
2022/05/04 12:53:31;;;;;;;3.22;2.42;;;21.10;56.60;;;;;;4956431;29;20424;-79
2022/05/04 12:58:41;;;;;;;3.80;2.33;;;21.20;56.60;;;;;;4942766;29;20460;-79
2022/05/04 13:01:07;;;;;;;3.20;2.42;;;21.20;56.50;;;;;;4956171;29;20277;-79
2022/05/04 13:03:34;;;;;;;3.92;2.63;;;21.30;56.30;;;;;;4940109;29;20452;-80
2022/05/04 13:06:00;;;;;;;3.40;2.33;;;21.30;56.20;;;;;;4955529;29;20038;-79
2022/05/04 13:08:26;;;;;;;3.45;2.10;;;21.30;56.10;;;;;;4957248;28;20027;-80
2022/05/04 13:10:53;;;;;;;3.35;2.35;;;21.30;56.10;;;;;;4955990;29;20066;-79
2022/05/04 13:13:21;;;;;;;3.78;2.42;;;21.30;56.20;;;;;;4939831;29;20027;-79
2022/05/04 13:15:52;;;;;;;3.70;2.30;;;21.40;56.40;;;;;;4955651;29;20075;-79
2022/05/04 13:18:19;;;;;;;4.78;2.70;;;21.40;56.50;;;;;;4939729;29;20090;-79
2022/05/04 13:20:45;;;;;;;2.92;2.15;;;21.40;56.50;;;;;;4956764;28;20074;-80
2022/05/04 13:23:11;;;;;;;3.45;2.55;;;21.40;56.60;;;;;;4939783;29;20039;-78
2022/05/04 13:25:37;;;;;;;2.90;1.95;;;21.50;56.80;;;;;;4940335;29;20372;-80
2022/05/04 13:28:03;;;;;;;3.38;2.20;;;21.50;56.80;;;;;;4955686;29;20089;-79